Terminal Aerodrome Forecast
Issued by NWS

Home | Current Version | Previous Version | Text Only | Print | Product List | Glossary On
Versions: 1 2 3 4 5 6 7 8 9 10 11 12 13 14 15 16 17 18 19 20
769
FTUS41 KILN 261135
TAFLCK
TAF
KLCK 261135Z 2612/2712 14003KT P6SM FEW250
     FM262000 18005KT P6SM FEW250
     FM270900 VRB02KT P6SM SCT045 BKN200=

USA.gov is the U.S. government's official web portal to all federal, state and local government web resources and services.